createdAt,value
2018-12-07T00:00:43.137Z,101.50
2018-12-07T00:03:11.951Z,105.70
2018-12-07T00:05:40.926Z,99.27
2018-12-07T00:08:10.267Z,105.50
2018-12-07T00:10:39.071Z,124.37
2018-12-07T00:13:09.253Z,131.90
2018-12-07T00:15:38.194Z,133.43
2018-12-07T00:18:07.081Z,123.77
2018-12-07T00:20:36.336Z,114.40
2018-12-07T00:23:05.180Z,119.50
2018-12-07T00:25:34.027Z,122.83
2018-12-07T00:28:02.894Z,130.63
2018-12-07T00:30:31.763Z,117.50
2018-12-07T00:33:00.557Z,120.80
2018-12-07T00:35:29.425Z,113.60
2018-12-07T00:37:58.349Z,122.30
2018-12-07T00:40:27.211Z,108.20
2018-12-07T00:42:56.015Z,110.67
2018-12-07T00:45:24.971Z,107.47
2018-12-07T00:47:53.775Z,111.83
2018-12-07T00:50:22.631Z,112.30
2018-12-07T00:52:51.389Z,120.43
2018-12-07T00:55:31.731Z,120.73
2018-12-07T00:58:00.575Z,112.57
2018-12-07T01:00:29.424Z,109.80
2018-12-07T01:02:58.618Z,115.43
2018-12-07T01:05:27.474Z,109.60
2018-12-07T01:07:56.304Z,116.93
2018-12-07T01:10:25.188Z,134.27
2018-12-07T01:12:53.928Z,127.50
2018-12-07T01:15:22.745Z,120.73
2018-12-07T01:17:51.552Z,124.57
2018-12-07T01:20:20.497Z,141.40
2018-12-07T01:22:49.306Z,131.17
2018-12-07T01:25:19.174Z,142.43
2018-12-07T01:27:51.397Z,145.57
2018-12-07T01:30:29.551Z,148.00
2018-12-07T01:33:00.693Z,130.70
2018-12-07T01:35:29.498Z,131.90
2018-12-07T01:37:58.281Z,134.43
2018-12-07T01:40:27.094Z,116.03
2018-12-07T01:42:55.921Z,125.27
2018-12-07T01:45:24.758Z,124.27
2018-12-07T01:47:53.456Z,128.17
2018-12-07T01:50:22.276Z,109.10
2018-12-07T01:52:51.213Z,97.47
2018-12-07T01:55:20.180Z,105.80
2018-12-07T01:57:48.980Z,95.13
2018-12-07T02:00:17.802Z,93.40
2018-12-07T02:02:52.938Z,96.57
2018-12-07T02:05:21.764Z,86.37
2018-12-07T02:07:50.614Z,90.17
2018-12-07T02:10:19.404Z,83.83
2018-12-07T02:12:48.224Z,85.13
2018-12-07T02:15:17.030Z,81.10
2018-12-07T02:17:45.743Z,85.37
2018-12-07T02:20:14.578Z,76.70
2018-12-07T02:22:43.418Z,66.27
2018-12-07T02:25:12.246Z,71.43
2018-12-07T02:27:46.457Z,62.80
2018-12-07T02:30:15.295Z,52.53
2018-12-07T02:32:44.102Z,57.73
2018-12-07T02:35:12.886Z,59.30
2018-12-07T02:37:41.690Z,59.40
2018-12-07T02:40:10.546Z,51.07
2018-12-07T02:42:39.322Z,53.00
2018-12-07T02:45:08.150Z,51.47
2018-12-07T02:47:36.924Z,56.77
2018-12-07T02:50:05.794Z,52.30
2018-12-07T02:52:34.946Z,49.77
2018-12-07T02:55:04.042Z,47.80
2018-12-07T02:57:32.803Z,45.97
2018-12-07T03:00:01.667Z,51.90
2018-12-07T03:02:31.515Z,43.93
2018-12-07T03:05:00.346Z,45.20
2018-12-07T03:07:29.088Z,42.90
2018-12-07T03:09:57.939Z,43.07
2018-12-07T03:12:26.745Z,40.30
2018-12-07T03:14:55.627Z,48.63
2018-12-07T03:17:24.541Z,44.07
2018-12-07T03:19:53.451Z,39.83
2018-12-07T03:22:22.360Z,48.27
2018-12-07T03:24:51.111Z,45.90
2018-12-07T03:27:19.952Z,47.43
2018-12-07T03:29:48.791Z,44.50
2018-12-07T03:32:17.529Z,43.90
2018-12-07T03:34:46.292Z,46.17
2018-12-07T03:37:15.128Z,44.13
2018-12-07T03:39:43.918Z,40.73
2018-12-07T03:42:12.726Z,42.57
2018-12-07T03:44:41.518Z,42.27
2018-12-07T03:47:10.317Z,41.20
2018-12-07T03:49:39.114Z,44.27
2018-12-07T03:52:07.871Z,39.77
2018-12-07T03:54:36.668Z,41.63
2018-12-07T03:57:05.497Z,38.77
2018-12-07T03:59:34.252Z,37.23
2018-12-07T04:02:03.153Z,36.50
2018-12-07T04:04:31.928Z,35.87
2018-12-07T04:07:00.815Z,36.37
2018-12-07T04:09:29.587Z,42.10
2018-12-07T04:11:58.499Z,38.97
2018-12-07T04:14:27.431Z,38.40
2018-12-07T04:16:56.179Z,47.27
2018-12-07T04:19:24.960Z,36.70
2018-12-07T04:21:53.864Z,33.53
2018-12-07T04:24:23.638Z,32.70
2018-12-07T04:26:52.527Z,32.70
2018-12-07T04:29:21.315Z,31.87
2018-12-07T04:31:50.090Z,32.30
2018-12-07T04:34:18.947Z,31.73
2018-12-07T04:36:47.700Z,29.03
2018-12-07T04:39:16.502Z,27.30
2018-12-07T04:41:45.402Z,28.37
2018-12-07T04:44:14.322Z,28.73
2018-12-07T04:46:43.580Z,29.13
2018-12-07T04:49:12.446Z,24.27
2018-12-07T04:51:41.269Z,24.17
2018-12-07T04:54:10.034Z,24.97
2018-12-07T04:56:38.869Z,24.77
2018-12-07T04:59:07.800Z,22.60
2018-12-07T05:01:36.550Z,22.13
2018-12-07T05:04:05.580Z,22.73
2018-12-07T05:06:34.398Z,21.93
2018-12-07T05:09:04.998Z,20.93
2018-12-07T05:11:33.763Z,21.13
2018-12-07T05:14:02.573Z,18.20
2018-12-07T05:16:32.299Z,19.33
2018-12-07T05:19:01.077Z,18.47
2018-12-07T05:21:29.865Z,20.80
2018-12-07T05:23:58.794Z,18.63
2018-12-07T05:26:27.633Z,23.43
2018-12-07T05:28:56.418Z,18.10
2018-12-07T05:31:25.100Z,16.93
2018-12-07T05:33:53.813Z,20.07
2018-12-07T05:36:22.571Z,23.50
2018-12-07T05:38:52.314Z,19.07
2018-12-07T05:41:21.159Z,20.57
2018-12-07T05:43:58.759Z,18.30
2018-12-07T05:46:27.616Z,21.30
2018-12-07T05:48:56.374Z,19.40
2018-12-07T05:51:25.209Z,19.20
2018-12-07T05:53:53.971Z,20.27
2018-12-07T05:56:22.810Z,24.13
2018-12-07T05:58:51.607Z,19.37
2018-12-07T06:01:20.417Z,21.13
2018-12-07T06:03:49.245Z,20.37
2018-12-07T06:06:18.145Z,21.67
2018-12-07T06:08:46.902Z,23.53
2018-12-07T06:11:15.669Z,24.13
2018-12-07T06:13:44.450Z,22.17
2018-12-07T06:16:13.333Z,24.77
2018-12-07T06:18:42.142Z,24.83
2018-12-07T06:21:10.987Z,24.30
2018-12-07T06:23:39.763Z,22.73
2018-12-07T06:26:08.736Z,20.33
2018-12-07T06:28:38.114Z,20.63
2018-12-07T06:31:06.839Z,20.43
2018-12-07T06:33:35.546Z,18.13
2018-12-07T06:36:04.600Z,23.97
2018-12-07T06:38:33.373Z,23.20
2018-12-07T06:41:02.115Z,18.73
2018-12-07T06:43:30.934Z,18.77
2018-12-07T06:45:59.730Z,27.43
2018-12-07T06:48:28.551Z,16.67
2018-12-07T06:50:57.311Z,13.83
2018-12-07T06:53:27.110Z,15.83
2018-12-07T06:55:55.831Z,15.77
2018-12-07T06:58:24.683Z,14.70
2018-12-07T07:00:53.477Z,16.00
2018-12-07T07:03:22.332Z,14.03
2018-12-07T07:05:51.115Z,16.50
2018-12-07T07:08:19.969Z,17.70
2018-12-07T07:10:48.805Z,14.37
2018-12-07T07:13:17.618Z,13.97
2018-12-07T07:15:46.394Z,16.33
2018-12-07T07:18:15.244Z,14.47
2018-12-07T07:20:44.001Z,16.83
2018-12-07T07:23:12.768Z,15.47
2018-12-07T07:25:41.581Z,17.20
2018-12-07T07:28:10.390Z,11.73
2018-12-07T07:30:39.221Z,13.77
2018-12-07T07:33:08.056Z,14.73
2018-12-07T07:35:36.910Z,13.33
2018-12-07T07:38:05.787Z,14.97
2018-12-07T07:40:34.693Z,14.67
2018-12-07T07:43:03.534Z,17.47
2018-12-07T07:45:32.413Z,14.93
2018-12-07T07:48:01.296Z,17.27
2018-12-07T07:50:30.123Z,15.43
2018-12-07T07:52:58.842Z,15.73
2018-12-07T07:55:27.647Z,13.57
2018-12-07T07:57:56.475Z,16.83
2018-12-07T08:00:25.309Z,20.10
2018-12-07T08:02:54.049Z,13.63
2018-12-07T08:05:22.886Z,14.13
2018-12-07T08:07:51.745Z,20.33
2018-12-07T08:10:20.623Z,13.87
2018-12-07T08:12:49.490Z,14.97
2018-12-07T08:15:18.278Z,14.50
2018-12-07T08:17:47.081Z,16.90
2018-12-07T08:20:16.854Z,14.67
2018-12-07T08:22:45.638Z,17.70
2018-12-07T08:25:14.439Z,15.67
2018-12-07T08:27:43.261Z,16.53
2018-12-07T08:30:12.478Z,19.90
2018-12-07T08:32:41.350Z,17.70
2018-12-07T08:35:10.234Z,20.07
2018-12-07T08:37:39.046Z,17.13
2018-12-07T08:40:08.683Z,18.77
2018-12-07T08:42:38.133Z,19.20
2018-12-07T08:45:08.078Z,18.60
2018-12-07T08:47:36.958Z,14.63
2018-12-07T08:50:07.845Z,17.03
2018-12-07T08:52:36.689Z,16.30
2018-12-07T08:55:05.573Z,13.77
2018-12-07T08:57:34.438Z,11.97
2018-12-07T09:00:03.768Z,13.10
2018-12-07T09:02:32.590Z,13.77
2018-12-07T09:05:01.378Z,14.60
2018-12-07T09:07:30.243Z,12.70
2018-12-07T09:10:00.141Z,14.40
2018-12-07T09:12:28.932Z,12.57
2018-12-07T09:14:57.774Z,12.97
2018-12-07T09:17:26.534Z,11.63
2018-12-07T09:19:55.235Z,11.33
2018-12-07T09:22:24.099Z,11.13
2018-12-07T09:24:52.934Z,11.43
2018-12-07T09:27:21.737Z,10.07
2018-12-07T09:29:50.553Z,11.40
2018-12-07T09:32:19.416Z,11.13
2018-12-07T09:34:48.271Z,11.33
2018-12-07T09:37:17.089Z,8.20
2018-12-07T09:39:45.862Z,8.87
2018-12-07T09:42:14.749Z,9.57
2018-12-07T09:44:43.573Z,9.70
2018-12-07T09:47:12.248Z,9.03
2018-12-07T09:49:41.004Z,8.10
2018-12-07T09:52:10.879Z,9.20
2018-12-07T09:54:39.714Z,10.20
2018-12-07T09:57:08.561Z,9.97
2018-12-07T09:59:37.420Z,8.83
2018-12-07T10:02:06.535Z,11.30
2018-12-07T10:04:35.353Z,9.53
2018-12-07T10:07:04.256Z,10.97
2018-12-07T10:09:33.099Z,12.43
2018-12-07T10:12:01.834Z,11.53
2018-12-07T10:14:30.613Z,15.03
2018-12-07T10:16:59.393Z,12.90
2018-12-07T10:19:28.209Z,14.10
2018-12-07T10:21:56.968Z,13.33
2018-12-07T10:24:26.086Z,15.67
2018-12-07T10:27:03.453Z,12.30
2018-12-07T10:29:33.646Z,11.83
2018-12-07T10:32:02.377Z,16.70
2018-12-07T10:34:31.203Z,12.67
2018-12-07T10:37:00.066Z,13.33
2018-12-07T10:39:28.947Z,15.33
2018-12-07T10:41:57.788Z,12.03
2018-12-07T10:44:27.821Z,12.50
2018-12-07T10:46:56.873Z,11.37
2018-12-07T10:49:25.690Z,9.20
2018-12-07T10:51:54.392Z,11.43
2018-12-07T10:54:23.247Z,10.67
2018-12-07T10:56:54.633Z,9.80
2018-12-07T10:59:23.681Z,9.77
2018-12-07T11:01:58.065Z,9.73
2018-12-07T11:04:32.162Z,10.23
2018-12-07T11:07:06.394Z,10.77
2018-12-07T11:09:40.486Z,9.17
2018-12-07T11:12:14.741Z,13.70
2018-12-07T11:14:49.022Z,11.70
2018-12-07T11:17:23.228Z,11.93
2018-12-07T11:19:57.379Z,11.87
2018-12-07T11:22:31.507Z,11.67
2018-12-07T11:25:05.799Z,10.60
2018-12-07T11:27:39.997Z,12.63
2018-12-07T11:30:14.133Z,12.10
2018-12-07T11:32:48.415Z,11.53
2018-12-07T11:35:21.486Z,10.67
2018-12-07T11:37:50.290Z,10.60
2018-12-07T11:40:19.068Z,11.17
2018-12-07T11:42:49.814Z,11.07
2018-12-07T11:45:18.551Z,10.67
2018-12-07T11:47:47.354Z,14.40
2018-12-07T11:50:16.209Z,8.43
2018-12-07T11:52:45.019Z,8.17
2018-12-07T11:55:13.888Z,9.53
2018-12-07T11:57:42.710Z,9.83
2018-12-07T12:00:11.622Z,6.80
2018-12-07T12:02:40.417Z,8.00
2018-12-07T12:05:09.235Z,7.80
2018-12-07T12:07:38.253Z,6.00
2018-12-07T12:10:07.050Z,5.33
2018-12-07T12:12:37.784Z,7.10
2018-12-07T12:15:07.707Z,6.07
2018-12-07T12:17:36.582Z,7.07
2018-12-07T12:20:06.478Z,6.27
2018-12-07T12:22:35.354Z,5.77
2018-12-07T12:25:04.748Z,14.73
2018-12-07T12:27:33.558Z,6.17
2018-12-07T12:30:02.376Z,5.53
2018-12-07T12:32:31.178Z,4.40
2018-12-07T12:34:59.922Z,6.53
2018-12-07T12:37:29.662Z,7.13
2018-12-07T12:39:58.419Z,7.50
2018-12-07T12:42:27.174Z,6.90
2018-12-07T12:44:55.989Z,6.70
2018-12-07T12:47:24.861Z,5.77
2018-12-07T12:49:53.682Z,5.03
2018-12-07T12:52:22.519Z,6.20
2018-12-07T12:54:51.198Z,5.97
2018-12-07T12:57:20.015Z,4.57
2018-12-07T12:59:48.894Z,6.80
2018-12-07T13:02:17.622Z,6.80
2018-12-07T13:04:46.495Z,6.93
2018-12-07T13:07:15.265Z,5.53
2018-12-07T13:09:44.087Z,4.93
2018-12-07T13:12:14.000Z,7.23
2018-12-07T13:14:42.724Z,6.57
2018-12-07T13:17:11.488Z,8.03
2018-12-07T13:19:40.367Z,6.33
2018-12-07T13:22:09.191Z,4.90
2018-12-07T13:24:37.976Z,6.13
2018-12-07T13:27:06.811Z,6.03
2018-12-07T13:29:35.577Z,4.70
2018-12-07T13:32:04.569Z,5.53
2018-12-07T13:34:33.266Z,5.27
2018-12-07T13:37:02.093Z,5.53
2018-12-07T13:39:30.953Z,7.70
2018-12-07T13:42:00.318Z,6.90
2018-12-07T13:44:30.194Z,5.87
2018-12-07T13:46:59.178Z,6.47
2018-12-07T13:49:28.333Z,6.27
2018-12-07T13:51:57.536Z,7.97
2018-12-07T13:54:26.457Z,6.77
2018-12-07T13:56:55.505Z,5.90
2018-12-07T13:59:24.670Z,5.57
2018-12-07T14:01:54.597Z,7.57
2018-12-07T14:04:23.718Z,6.10
2018-12-07T14:06:52.603Z,6.87
2018-12-07T14:09:21.486Z,4.93
2018-12-07T14:11:51.079Z,5.20
2018-12-07T14:14:21.224Z,5.63
2018-12-07T14:16:50.170Z,5.50
2018-12-07T14:19:19.518Z,6.07
2018-12-07T14:21:51.360Z,7.07
2018-12-07T14:24:22.783Z,7.07
2018-12-07T14:26:59.287Z,4.50
2018-12-07T14:29:23.158Z,5.30
2018-12-07T14:31:53.178Z,4.60
2018-12-07T14:34:22.072Z,4.90
2018-12-07T14:36:51.116Z,4.33
2018-12-07T14:39:20.471Z,4.77
2018-12-07T14:41:49.369Z,4.83
2018-12-07T14:44:18.398Z,4.60
2018-12-07T14:46:47.243Z,3.53
2018-12-07T14:49:16.134Z,4.37
2018-12-07T14:51:45.628Z,4.63
2018-12-07T14:54:14.567Z,5.63
2018-12-07T14:56:43.546Z,6.80
2018-12-07T14:59:12.442Z,4.37
2018-12-07T15:01:41.525Z,6.27
2018-12-07T15:04:10.581Z,4.40
2018-12-07T15:06:40.465Z,5.00
2018-12-07T15:09:09.796Z,5.87
2018-12-07T15:11:42.526Z,5.87
2018-12-07T15:14:13.475Z,5.60
2018-12-07T15:16:42.773Z,5.10
2018-12-07T15:19:11.770Z,6.23
2018-12-07T15:21:42.481Z,5.00
2018-12-07T15:24:11.329Z,9.70
2018-12-07T15:26:40.481Z,8.50
2018-12-07T15:29:09.370Z,6.47
2018-12-07T15:31:38.157Z,7.97
2018-12-07T15:34:07.331Z,6.80
2018-12-07T15:36:36.332Z,6.83
2018-12-07T15:39:08.282Z,7.30
2018-12-07T15:41:37.160Z,7.60
2018-12-07T15:44:07.138Z,7.97
2018-12-07T15:46:36.237Z,7.47
2018-12-07T15:49:05.286Z,7.57
2018-12-07T15:51:34.416Z,7.40
2018-12-07T15:54:04.359Z,6.73
2018-12-07T15:56:33.878Z,9.23
2018-12-07T15:59:02.837Z,9.53
2018-12-07T16:01:31.801Z,9.03
2018-12-07T16:04:00.700Z,8.17
2018-12-07T16:06:30.017Z,8.77
2018-12-07T16:08:59.217Z,23.90
2018-12-07T16:11:28.380Z,9.03
2018-12-07T16:13:57.295Z,8.67
2018-12-07T16:16:26.338Z,8.93
2018-12-07T16:18:55.449Z,9.50
2018-12-07T16:21:24.529Z,11.27
2018-12-07T16:23:53.604Z,10.07
2018-12-07T16:26:22.532Z,12.90
2018-12-07T16:28:51.509Z,9.60
2018-12-07T16:31:20.524Z,9.53
2018-12-07T16:33:49.416Z,12.93
2018-12-07T16:36:18.244Z,10.43
2018-12-07T16:38:47.308Z,10.93
2018-12-07T16:41:16.258Z,10.40
2018-12-07T16:43:45.322Z,10.37
2018-12-07T16:46:14.252Z,10.47
2018-12-07T16:48:43.197Z,10.00
2018-12-07T16:51:12.855Z,11.27
2018-12-07T16:53:42.453Z,12.33
2018-12-07T16:56:13.827Z,11.30
2018-12-07T16:58:46.338Z,11.93
2018-12-07T17:01:18.490Z,10.97
2018-12-07T17:03:52.606Z,10.73
2018-12-07T17:06:21.831Z,9.50
2018-12-07T17:08:50.869Z,10.27
2018-12-07T17:11:20.032Z,11.17
2018-12-07T17:13:48.935Z,9.67
2018-12-07T17:16:17.830Z,8.93
2018-12-07T17:18:47.004Z,8.97
2018-12-07T17:21:15.911Z,12.37
2018-12-07T17:23:44.700Z,9.13
2018-12-07T17:26:13.520Z,9.40
2018-12-07T17:28:42.708Z,9.90
2018-12-07T17:31:11.665Z,10.17
2018-12-07T17:33:40.573Z,10.57
2018-12-07T17:36:09.551Z,11.30
2018-12-07T17:38:38.430Z,10.38
2018-12-07T17:41:07.427Z,11.33
2018-12-07T17:43:37.510Z,13.43
2018-12-07T17:46:06.690Z,13.23
2018-12-07T17:48:36.107Z,11.93
2018-12-07T17:51:05.213Z,12.10
2018-12-07T17:53:34.061Z,12.73
2018-12-07T17:56:03.513Z,11.53
2018-12-07T17:58:32.418Z,12.83
2018-12-07T18:01:01.458Z,11.47
2018-12-07T18:03:31.311Z,13.37
2018-12-07T18:06:00.262Z,13.43
2018-12-07T18:08:29.348Z,12.90
2018-12-07T18:10:59.244Z,12.87
2018-12-07T18:13:28.586Z,14.03
2018-12-07T18:15:57.496Z,13.83
2018-12-07T18:18:26.942Z,14.70
2018-12-07T18:20:56.014Z,18.17
2018-12-07T18:23:24.982Z,22.33
2018-12-07T18:25:53.957Z,17.37
2018-12-07T18:28:24.635Z,16.47
2018-12-07T18:30:53.665Z,18.57
2018-12-07T18:33:22.647Z,16.53
2018-12-07T18:35:51.550Z,16.87
2018-12-07T18:38:20.385Z,18.03
2018-12-07T18:40:49.831Z,17.73
2018-12-07T18:43:18.795Z,19.03
2018-12-07T18:45:47.734Z,17.27
2018-12-07T18:48:16.778Z,17.77
2018-12-07T18:50:45.934Z,19.70
2018-12-07T18:53:14.898Z,18.57
2018-12-07T18:55:43.902Z,21.60
2018-12-07T18:58:13.075Z,18.20
2018-12-07T19:00:42.353Z,17.43
2018-12-07T19:03:11.316Z,17.67
2018-12-07T19:05:40.252Z,21.33
2018-12-07T19:08:09.505Z,16.03
2018-12-07T19:10:38.589Z,17.40
2018-12-07T19:13:08.219Z,17.60
2018-12-07T19:15:39.720Z,17.67
2018-12-07T19:18:08.751Z,18.83
2018-12-07T19:20:38.045Z,16.93
2018-12-07T19:25:54.463Z,14.63
2018-12-07T19:28:23.689Z,14.07
2018-12-07T19:30:52.629Z,17.53
2018-12-07T19:33:21.827Z,14.40
2018-12-07T19:35:51.312Z,26.67
2018-12-07T19:38:20.509Z,13.70
2018-12-07T19:40:49.723Z,16.57
2018-12-07T19:43:18.944Z,16.33
2018-12-07T19:45:47.885Z,14.63
2018-12-07T19:48:16.932Z,17.30
2018-12-07T19:50:45.939Z,13.87
2018-12-07T19:53:15.176Z,13.33
2018-12-07T19:55:45.117Z,12.40
2018-12-07T19:58:15.470Z,12.73
2018-12-07T20:00:44.873Z,10.83
2018-12-07T20:03:17.512Z,13.60
2018-12-07T20:05:46.603Z,13.27
2018-12-07T20:08:16.430Z,11.97
2018-12-07T20:10:45.815Z,11.70
2018-12-07T20:13:14.690Z,12.27
2018-12-07T20:15:43.693Z,16.10
2018-12-07T20:18:14.023Z,13.20
2018-12-07T20:20:43.876Z,11.70
2018-12-07T20:23:12.751Z,12.73
2018-12-07T20:25:41.693Z,13.00
2018-12-07T20:28:10.773Z,14.33
2018-12-07T20:30:39.671Z,14.90
2018-12-07T20:33:08.782Z,13.90
2018-12-07T20:35:37.687Z,14.53
2018-12-07T20:38:06.996Z,12.13
2018-12-07T20:40:36.191Z,12.93
2018-12-07T20:43:05.152Z,11.90
2018-12-07T20:45:34.400Z,12.20
2018-12-07T20:48:04.244Z,14.27
2018-12-07T20:50:33.127Z,11.80
2018-12-07T20:53:02.949Z,11.83
2018-12-07T20:55:32.217Z,11.40
2018-12-07T20:58:01.407Z,13.13
2018-12-07T21:00:30.682Z,13.20
2018-12-07T21:03:00.049Z,11.57
2018-12-07T21:05:45.993Z,17.07
2018-12-07T21:08:30.575Z,12.23
2018-12-07T21:11:08.401Z,12.17
2018-12-07T21:14:43.276Z,9.47
2018-12-07T21:17:17.804Z,12.30
2018-12-07T21:19:54.709Z,11.43
2018-12-07T21:22:23.935Z,12.10
2018-12-07T21:24:52.834Z,11.67
2018-12-07T21:27:22.081Z,11.17
2018-12-07T21:30:17.580Z,12.30
2018-12-07T21:32:46.658Z,9.77
2018-12-07T21:35:15.719Z,10.47
2018-12-07T21:37:44.944Z,10.80
2018-12-07T21:40:19.549Z,12.37
2018-12-07T21:42:48.611Z,12.57
2018-12-07T21:45:17.770Z,10.67
2018-12-07T21:48:02.376Z,9.50
2018-12-07T21:50:32.393Z,11.60
2018-12-07T21:53:01.525Z,12.57
2018-12-07T21:55:30.675Z,10.47
2018-12-07T21:57:59.704Z,8.97
2018-12-07T22:00:28.662Z,10.60
2018-12-07T22:03:02.127Z,10.70
2018-12-07T22:05:31.540Z,14.27
2018-12-07T22:08:00.708Z,11.53
2018-12-07T22:10:29.842Z,12.70
2018-12-07T22:12:58.892Z,12.60
2018-12-07T22:15:27.648Z,12.53
2018-12-07T22:17:56.422Z,13.73
2018-12-07T22:20:25.360Z,10.53
2018-12-07T22:22:54.110Z,13.63
2018-12-07T22:25:22.984Z,14.87
2018-12-07T22:27:51.866Z,12.03
2018-12-07T22:30:20.853Z,11.63
2018-12-07T22:32:49.875Z,16.60
2018-12-07T22:35:18.756Z,10.30
2018-12-07T22:37:47.941Z,13.30
2018-12-07T22:40:16.960Z,10.93
2018-12-07T22:42:46.000Z,11.27
2018-12-07T22:45:14.951Z,11.13
2018-12-07T22:47:43.764Z,14.40
2018-12-07T22:50:18.314Z,12.00
2018-12-07T22:52:47.086Z,9.47
2018-12-07T22:55:15.903Z,10.10
2018-12-07T22:57:44.683Z,11.77
2018-12-07T23:02:55.360Z,10.67
2018-12-07T23:05:24.631Z,11.73
2018-12-07T23:07:53.522Z,10.87
2018-12-07T23:10:22.409Z,12.43
2018-12-07T23:12:51.279Z,9.87
2018-12-07T23:15:20.072Z,9.23
2018-12-07T23:17:48.944Z,10.50
2018-12-07T23:20:17.855Z,11.20
2018-12-07T23:22:49.036Z,11.87
2018-12-07T23:25:21.136Z,10.37
2018-12-07T23:27:53.570Z,12.00
2018-12-07T23:30:22.542Z,14.07
2018-12-07T23:32:51.395Z,9.63
2018-12-07T23:35:20.302Z,8.00
2018-12-07T23:37:49.193Z,6.33
2018-12-07T23:40:18.003Z,9.40
2018-12-07T23:42:46.856Z,6.10
2018-12-07T23:45:15.767Z,6.67
2018-12-07T23:47:44.699Z,6.87
2018-12-07T23:50:13.538Z,10.20
2018-12-07T23:52:42.438Z,7.03
2018-12-07T23:55:11.452Z,8.30
2018-12-07T23:57:40.356Z,9.47
